sensor_id;sensor_type;location;lat;lon;timestamp;P1;durP1;ratioP1;P2;durP2;ratioP2
39344;SDS011;25061;51.954;6.996;2022-09-11T00:01:35;28.50;;;16.08;;
39344;SDS011;25061;51.954;6.996;2022-09-11T00:04:01;27.75;;;16.15;;
39344;SDS011;25061;51.954;6.996;2022-09-11T00:06:28;20.05;;;11.45;;
39344;SDS011;25061;51.954;6.996;2022-09-11T00:08:55;17.85;;;10.82;;
39344;SDS011;25061;51.954;6.996;2022-09-11T00:11:26;23.55;;;13.40;;
39344;SDS011;25061;51.954;6.996;2022-09-11T00:13:54;25.63;;;15.48;;
39344;SDS011;25061;51.954;6.996;2022-09-11T00:16:21;28.20;;;16.83;;
39344;SDS011;25061;51.954;6.996;2022-09-11T00:19:04;26.10;;;15.45;;
39344;SDS011;25061;51.954;6.996;2022-09-11T00:21:36;31.65;;;18.02;;
39344;SDS011;25061;51.954;6.996;2022-09-11T00:24:01;30.92;;;17.30;;
39344;SDS011;25061;51.954;6.996;2022-09-11T00:26:28;29.80;;;17.75;;
39344;SDS011;25061;51.954;6.996;2022-09-11T00:28:54;25.77;;;15.40;;
39344;SDS011;25061;51.954;6.996;2022-09-11T00:31:21;25.38;;;14.43;;
39344;SDS011;25061;51.954;6.996;2022-09-11T00:33:48;23.45;;;15.32;;
39344;SDS011;25061;51.954;6.996;2022-09-11T00:36:17;27.75;;;16.17;;
39344;SDS011;25061;51.954;6.996;2022-09-11T00:38:48;29.70;;;17.25;;
39344;SDS011;25061;51.954;6.996;2022-09-11T00:41:15;31.35;;;18.10;;
39344;SDS011;25061;51.954;6.996;2022-09-11T00:49:48;36.00;;;20.40;;
39344;SDS011;25061;51.954;6.996;2022-09-11T00:52:04;37.35;;;19.63;;
39344;SDS011;25061;51.954;6.996;2022-09-11T00:54:33;37.63;;;21.65;;
39344;SDS011;25061;51.954;6.996;2022-09-11T00:57:28;36.35;;;19.80;;
39344;SDS011;25061;51.954;6.996;2022-09-11T00:59:56;39.70;;;21.23;;
39344;SDS011;25061;51.954;6.996;2022-09-11T01:02:24;41.38;;;20.25;;
39344;SDS011;25061;51.954;6.996;2022-09-11T01:04:52;33.88;;;18.85;;
39344;SDS011;25061;51.954;6.996;2022-09-11T01:07:18;36.90;;;18.65;;
39344;SDS011;25061;51.954;6.996;2022-09-11T01:09:46;39.67;;;19.92;;
39344;SDS011;25061;51.954;6.996;2022-09-11T01:12:22;37.00;;;20.92;;
39344;SDS011;25061;51.954;6.996;2022-09-11T01:18:14;41.42;;;20.83;;
39344;SDS011;25061;51.954;6.996;2022-09-11T01:26:00;42.78;;;21.55;;
39344;SDS011;25061;51.954;6.996;2022-09-11T01:28:37;39.95;;;20.77;;
39344;SDS011;25061;51.954;6.996;2022-09-11T01:31:10;41.53;;;19.92;;
39344;SDS011;25061;51.954;6.996;2022-09-11T01:33:41;43.50;;;21.45;;
39344;SDS011;25061;51.954;6.996;2022-09-11T01:36:49;42.78;;;20.45;;
39344;SDS011;25061;51.954;6.996;2022-09-11T01:39:11;42.40;;;20.63;;
39344;SDS011;25061;51.954;6.996;2022-09-11T01:41:45;40.50;;;20.98;;
39344;SDS011;25061;51.954;6.996;2022-09-11T01:44:16;47.17;;;20.77;;
39344;SDS011;25061;51.954;6.996;2022-09-11T01:46:50;42.03;;;21.17;;
39344;SDS011;25061;51.954;6.996;2022-09-11T01:49:25;46.50;;;22.40;;
39344;SDS011;25061;51.954;6.996;2022-09-11T01:52:21;43.88;;;20.15;;
39344;SDS011;25061;51.954;6.996;2022-09-11T01:54:58;42.75;;;21.10;;
39344;SDS011;25061;51.954;6.996;2022-09-11T01:57:43;45.38;;;21.27;;
39344;SDS011;25061;51.954;6.996;2022-09-11T02:00:13;40.13;;;20.10;;
39344;SDS011;25061;51.954;6.996;2022-09-11T02:02:41;43.13;;;21.23;;
39344;SDS011;25061;51.954;6.996;2022-09-11T02:05:14;45.17;;;20.80;;
39344;SDS011;25061;51.954;6.996;2022-09-11T02:10:48;45.42;;;20.90;;
39344;SDS011;25061;51.954;6.996;2022-09-11T02:15:49;51.60;;;23.05;;
39344;SDS011;25061;51.954;6.996;2022-09-11T02:18:19;53.05;;;21.48;;
39344;SDS011;25061;51.954;6.996;2022-09-11T02:20:49;54.58;;;21.73;;
39344;SDS011;25061;51.954;6.996;2022-09-11T02:23:15;49.90;;;22.95;;
39344;SDS011;25061;51.954;6.996;2022-09-11T02:25:41;53.28;;;23.63;;
39344;SDS011;25061;51.954;6.996;2022-09-11T02:28:10;47.92;;;22.27;;
39344;SDS011;25061;51.954;6.996;2022-09-11T02:30:37;51.13;;;22.80;;
39344;SDS011;25061;51.954;6.996;2022-09-11T02:33:03;47.78;;;22.35;;
39344;SDS011;25061;51.954;6.996;2022-09-11T02:35:31;68.35;;;18.92;;
39344;SDS011;25061;51.954;6.996;2022-09-11T02:41:02;54.63;;;16.80;;
39344;SDS011;25061;51.954;6.996;2022-09-11T02:48:55;55.65;;;17.83;;
39344;SDS011;25061;51.954;6.996;2022-09-11T02:54:26;100.55;;;18.13;;
39344;SDS011;25061;51.954;6.996;2022-09-11T02:59:43;84.25;;;18.85;;
39344;SDS011;25061;51.954;6.996;2022-09-11T03:02:14;83.85;;;18.70;;
39344;SDS011;25061;51.954;6.996;2022-09-11T03:04:42;64.60;;;18.92;;
39344;SDS011;25061;51.954;6.996;2022-09-11T03:07:08;44.80;;;18.98;;
39344;SDS011;25061;51.954;6.996;2022-09-11T03:09:33;69.68;;;18.80;;
39344;SDS011;25061;51.954;6.996;2022-09-11T03:11:59;44.63;;;18.08;;
39344;SDS011;25061;51.954;6.996;2022-09-11T03:14:25;72.32;;;18.38;;
39344;SDS011;25061;51.954;6.996;2022-09-11T03:16:51;86.03;;;21.85;;
39344;SDS011;25061;51.954;6.996;2022-09-11T03:19:17;62.85;;;20.08;;
39344;SDS011;25061;51.954;6.996;2022-09-11T03:21:42;67.65;;;20.92;;
39344;SDS011;25061;51.954;6.996;2022-09-11T03:24:08;38.47;;;20.23;;
39344;SDS011;25061;51.954;6.996;2022-09-11T03:26:34;119.97;;;21.92;;
39344;SDS011;25061;51.954;6.996;2022-09-11T03:29:00;32.53;;;15.77;;
39344;SDS011;25061;51.954;6.996;2022-09-11T03:31:26;53.15;;;16.70;;
39344;SDS011;25061;51.954;6.996;2022-09-11T03:33:52;29.13;;;15.38;;
39344;SDS011;25061;51.954;6.996;2022-09-11T03:36:18;29.58;;;14.98;;
39344;SDS011;25061;51.954;6.996;2022-09-11T03:38:44;20.00;;;11.68;;
39344;SDS011;25061;51.954;6.996;2022-09-11T03:41:14;33.45;;;16.83;;
39344;SDS011;25061;51.954;6.996;2022-09-11T03:43:39;57.42;;;17.33;;
39344;SDS011;25061;51.954;6.996;2022-09-11T03:46:05;26.20;;;15.93;;
39344;SDS011;25061;51.954;6.996;2022-09-11T03:48:31;31.00;;;16.48;;
39344;SDS011;25061;51.954;6.996;2022-09-11T03:50:57;27.13;;;13.00;;
39344;SDS011;25061;51.954;6.996;2022-09-11T03:53:24;31.58;;;15.77;;
39344;SDS011;25061;51.954;6.996;2022-09-11T03:55:50;69.65;;;16.95;;
39344;SDS011;25061;51.954;6.996;2022-09-11T03:58:16;25.85;;;12.73;;
39344;SDS011;25061;51.954;6.996;2022-09-11T04:00:44;31.42;;;14.88;;
39344;SDS011;25061;51.954;6.996;2022-09-11T04:03:11;23.23;;;14.05;;
39344;SDS011;25061;51.954;6.996;2022-09-11T04:05:39;72.72;;;15.52;;
39344;SDS011;25061;51.954;6.996;2022-09-11T04:08:05;25.88;;;13.68;;
39344;SDS011;25061;51.954;6.996;2022-09-11T04:10:31;55.53;;;16.27;;
39344;SDS011;25061;51.954;6.996;2022-09-11T04:12:58;20.65;;;12.00;;
39344;SDS011;25061;51.954;6.996;2022-09-11T04:15:23;65.38;;;17.10;;
39344;SDS011;25061;51.954;6.996;2022-09-11T04:17:49;56.38;;;17.30;;
39344;SDS011;25061;51.954;6.996;2022-09-11T04:20:15;72.00;;;19.35;;
39344;SDS011;25061;51.954;6.996;2022-09-11T04:22:40;77.07;;;18.83;;
39344;SDS011;25061;51.954;6.996;2022-09-11T04:25:07;77.05;;;18.60;;
39344;SDS011;25061;51.954;6.996;2022-09-11T04:27:33;77.93;;;18.90;;
39344;SDS011;25061;51.954;6.996;2022-09-11T04:29:58;51.55;;;15.68;;
39344;SDS011;25061;51.954;6.996;2022-09-11T04:32:24;37.22;;;17.55;;
39344;SDS011;25061;51.954;6.996;2022-09-11T04:34:49;57.55;;;17.95;;
39344;SDS011;25061;51.954;6.996;2022-09-11T04:37:15;61.22;;;18.27;;
39344;SDS011;25061;51.954;6.996;2022-09-11T04:39:41;34.58;;;18.67;;
39344;SDS011;25061;51.954;6.996;2022-09-11T04:42:07;133.07;;;19.35;;
39344;SDS011;25061;51.954;6.996;2022-09-11T04:44:34;68.85;;;18.48;;
39344;SDS011;25061;51.954;6.996;2022-09-11T04:47:00;148.23;;;19.98;;
39344;SDS011;25061;51.954;6.996;2022-09-11T04:49:25;74.13;;;18.63;;
39344;SDS011;25061;51.954;6.996;2022-09-11T04:51:51;70.47;;;19.00;;
39344;SDS011;25061;51.954;6.996;2022-09-11T04:54:17;45.92;;;20.48;;
39344;SDS011;25061;51.954;6.996;2022-09-11T04:56:47;38.03;;;17.08;;
39344;SDS011;25061;51.954;6.996;2022-09-11T04:59:17;50.75;;;19.60;;
39344;SDS011;25061;51.954;6.996;2022-09-11T05:01:44;39.35;;;19.00;;
39344;SDS011;25061;51.954;6.996;2022-09-11T05:04:10;46.30;;;18.42;;
39344;SDS011;25061;51.954;6.996;2022-09-11T05:06:37;69.13;;;19.50;;
39344;SDS011;25061;51.954;6.996;2022-09-11T05:09:03;101.65;;;19.10;;
39344;SDS011;25061;51.954;6.996;2022-09-11T05:11:30;197.07;;;22.25;;
39344;SDS011;25061;51.954;6.996;2022-09-11T05:13:57;94.68;;;18.90;;
39344;SDS011;25061;51.954;6.996;2022-09-11T05:16:23;107.90;;;19.98;;
39344;SDS011;25061;51.954;6.996;2022-09-11T05:18:51;70.30;;;20.30;;
39344;SDS011;25061;51.954;6.996;2022-09-11T05:21:16;107.30;;;20.80;;
39344;SDS011;25061;51.954;6.996;2022-09-11T05:23:48;59.10;;;19.75;;
39344;SDS011;25061;51.954;6.996;2022-09-11T05:26:16;73.73;;;21.10;;
39344;SDS011;25061;51.954;6.996;2022-09-11T05:28:46;65.10;;;20.20;;
39344;SDS011;25061;51.954;6.996;2022-09-11T05:31:16;50.97;;;16.90;;
39344;SDS011;25061;51.954;6.996;2022-09-11T05:33:43;38.67;;;16.17;;
39344;SDS011;25061;51.954;6.996;2022-09-11T05:36:09;40.25;;;17.25;;
39344;SDS011;25061;51.954;6.996;2022-09-11T05:38:36;71.95;;;20.67;;
39344;SDS011;25061;51.954;6.996;2022-09-11T05:41:03;55.05;;;19.05;;
39344;SDS011;25061;51.954;6.996;2022-09-11T05:43:30;41.03;;;18.02;;
39344;SDS011;25061;51.954;6.996;2022-09-11T05:45:57;49.58;;;19.23;;
39344;SDS011;25061;51.954;6.996;2022-09-11T05:48:23;47.20;;;18.15;;
39344;SDS011;25061;51.954;6.996;2022-09-11T05:50:55;52.75;;;18.70;;
39344;SDS011;25061;51.954;6.996;2022-09-11T05:53:23;41.15;;;17.08;;
39344;SDS011;25061;51.954;6.996;2022-09-11T05:55:50;36.35;;;18.02;;
39344;SDS011;25061;51.954;6.996;2022-09-11T05:58:15;41.15;;;19.48;;
39344;SDS011;25061;51.954;6.996;2022-09-11T06:00:42;36.10;;;17.80;;
39344;SDS011;25061;51.954;6.996;2022-09-11T06:03:11;28.85;;;14.90;;
39344;SDS011;25061;51.954;6.996;2022-09-11T06:05:40;34.95;;;17.00;;
39344;SDS011;25061;51.954;6.996;2022-09-11T06:08:07;29.83;;;13.35;;
39344;SDS011;25061;51.954;6.996;2022-09-11T06:10:36;32.35;;;16.42;;
39344;SDS011;25061;51.954;6.996;2022-09-11T06:13:10;29.15;;;14.10;;
39344;SDS011;25061;51.954;6.996;2022-09-11T06:15:36;36.90;;;18.50;;
39344;SDS011;25061;51.954;6.996;2022-09-11T06:20:34;36.25;;;18.30;;
39344;SDS011;25061;51.954;6.996;2022-09-11T06:22:59;35.90;;;18.38;;
39344;SDS011;25061;51.954;6.996;2022-09-11T06:25:25;35.63;;;19.35;;
39344;SDS011;25061;51.954;6.996;2022-09-11T06:27:58;31.10;;;17.15;;
39344;SDS011;25061;51.954;6.996;2022-09-11T06:30:27;36.00;;;18.98;;
39344;SDS011;25061;51.954;6.996;2022-09-11T06:32:53;37.83;;;20.27;;
39344;SDS011;25061;51.954;6.996;2022-09-11T06:35:20;32.85;;;18.67;;
39344;SDS011;25061;51.954;6.996;2022-09-11T06:37:47;27.05;;;15.45;;
39344;SDS011;25061;51.954;6.996;2022-09-11T06:40:13;31.00;;;17.05;;
39344;SDS011;25061;51.954;6.996;2022-09-11T06:42:39;29.48;;;17.15;;
39344;SDS011;25061;51.954;6.996;2022-09-11T06:45:07;19.10;;;11.20;;
39344;SDS011;25061;51.954;6.996;2022-09-11T06:47:33;27.40;;;16.63;;
39344;SDS011;25061;51.954;6.996;2022-09-11T06:49:59;28.40;;;17.55;;
39344;SDS011;25061;51.954;6.996;2022-09-11T06:52:24;26.00;;;16.60;;
39344;SDS011;25061;51.954;6.996;2022-09-11T06:54:50;29.40;;;18.13;;
39344;SDS011;25061;51.954;6.996;2022-09-11T06:57:15;24.63;;;15.82;;
39344;SDS011;25061;51.954;6.996;2022-09-11T06:59:41;25.88;;;16.67;;
39344;SDS011;25061;51.954;6.996;2022-09-11T07:02:07;25.30;;;16.10;;
39344;SDS011;25061;51.954;6.996;2022-09-11T07:04:34;27.02;;;16.98;;
39344;SDS011;25061;51.954;6.996;2022-09-11T07:06:59;25.60;;;16.48;;
39344;SDS011;25061;51.954;6.996;2022-09-11T07:09:25;26.90;;;16.88;;
39344;SDS011;25061;51.954;6.996;2022-09-11T07:11:51;27.27;;;17.60;;
39344;SDS011;25061;51.954;6.996;2022-09-11T07:14:17;25.67;;;15.98;;
39344;SDS011;25061;51.954;6.996;2022-09-11T07:16:47;27.60;;;18.33;;
39344;SDS011;25061;51.954;6.996;2022-09-11T07:19:14;28.88;;;19.48;;
39344;SDS011;25061;51.954;6.996;2022-09-11T07:21:39;27.65;;;17.10;;
39344;SDS011;25061;51.954;6.996;2022-09-11T07:24:05;25.50;;;16.73;;
39344;SDS011;25061;51.954;6.996;2022-09-11T07:26:31;26.75;;;16.98;;
39344;SDS011;25061;51.954;6.996;2022-09-11T07:28:57;27.67;;;18.38;;
39344;SDS011;25061;51.954;6.996;2022-09-11T07:31:32;27.50;;;18.23;;
39344;SDS011;25061;51.954;6.996;2022-09-11T07:33:58;25.52;;;16.70;;
39344;SDS011;25061;51.954;6.996;2022-09-11T07:36:26;33.72;;;19.63;;
39344;SDS011;25061;51.954;6.996;2022-09-11T07:38:53;29.10;;;18.77;;
39344;SDS011;25061;51.954;6.996;2022-09-11T07:41:19;32.40;;;20.55;;
39344;SDS011;25061;51.954;6.996;2022-09-11T07:43:46;34.08;;;21.33;;
39344;SDS011;25061;51.954;6.996;2022-09-11T07:46:15;30.35;;;19.85;;
39344;SDS011;25061;51.954;6.996;2022-09-11T07:48:41;28.55;;;18.33;;
39344;SDS011;25061;51.954;6.996;2022-09-11T07:51:08;33.40;;;21.73;;
39344;SDS011;25061;51.954;6.996;2022-09-11T07:53:39;28.63;;;19.83;;
39344;SDS011;25061;51.954;6.996;2022-09-11T07:56:15;27.25;;;18.52;;
39344;SDS011;25061;51.954;6.996;2022-09-11T07:58:42;30.15;;;20.67;;
39344;SDS011;25061;51.954;6.996;2022-09-11T08:01:10;27.42;;;18.98;;
39344;SDS011;25061;51.954;6.996;2022-09-11T08:03:37;30.23;;;21.08;;
39344;SDS011;25061;51.954;6.996;2022-09-11T08:06:03;25.88;;;18.05;;
39344;SDS011;25061;51.954;6.996;2022-09-11T08:08:30;22.63;;;16.35;;
39344;SDS011;25061;51.954;6.996;2022-09-11T08:10:59;24.48;;;17.63;;
39344;SDS011;25061;51.954;6.996;2022-09-11T08:13:27;31.17;;;19.25;;
39344;SDS011;25061;51.954;6.996;2022-09-11T08:15:53;29.40;;;19.08;;
39344;SDS011;25061;51.954;6.996;2022-09-11T08:18:18;25.73;;;18.35;;
39344;SDS011;25061;51.954;6.996;2022-09-11T08:20:44;26.95;;;18.90;;
39344;SDS011;25061;51.954;6.996;2022-09-11T08:23:10;25.02;;;17.25;;
39344;SDS011;25061;51.954;6.996;2022-09-11T08:25:36;25.23;;;17.92;;
39344;SDS011;25061;51.954;6.996;2022-09-11T08:28:03;22.67;;;15.88;;
39344;SDS011;25061;51.954;6.996;2022-09-11T08:30:29;22.55;;;16.85;;
39344;SDS011;25061;51.954;6.996;2022-09-11T08:32:56;25.67;;;17.38;;
39344;SDS011;25061;51.954;6.996;2022-09-11T08:35:21;26.65;;;17.92;;
39344;SDS011;25061;51.954;6.996;2022-09-11T08:37:47;25.50;;;17.90;;
39344;SDS011;25061;51.954;6.996;2022-09-11T08:40:13;29.77;;;20.13;;
39344;SDS011;25061;51.954;6.996;2022-09-11T08:42:39;26.58;;;18.55;;
39344;SDS011;25061;51.954;6.996;2022-09-11T08:45:09;26.23;;;18.60;;
39344;SDS011;25061;51.954;6.996;2022-09-11T08:47:42;22.17;;;15.73;;
39344;SDS011;25061;51.954;6.996;2022-09-11T08:50:20;22.50;;;15.73;;
39344;SDS011;25061;51.954;6.996;2022-09-11T08:52:51;22.08;;;15.57;;
39344;SDS011;25061;51.954;6.996;2022-09-11T08:55:42;23.95;;;16.63;;
39344;SDS011;25061;51.954;6.996;2022-09-11T08:58:33;24.73;;;17.83;;
39344;SDS011;25061;51.954;6.996;2022-09-11T09:17:11;21.63;;;14.30;;
39344;SDS011;25061;51.954;6.996;2022-09-11T09:24:53;21.15;;;15.73;;
39344;SDS011;25061;51.954;6.996;2022-09-11T09:27:32;15.73;;;10.32;;
39344;SDS011;25061;51.954;6.996;2022-09-11T09:30:02;16.73;;;10.88;;
39344;SDS011;25061;51.954;6.996;2022-09-11T09:32:38;13.68;;;9.10;;
39344;SDS011;25061;51.954;6.996;2022-09-11T09:35:13;16.48;;;10.60;;
39344;SDS011;25061;51.954;6.996;2022-09-11T09:37:43;19.20;;;12.10;;
39344;SDS011;25061;51.954;6.996;2022-09-11T09:40:13;15.68;;;10.18;;
39344;SDS011;25061;51.954;6.996;2022-09-11T09:45:38;18.98;;;12.65;;
39344;SDS011;25061;51.954;6.996;2022-09-11T09:48:23;19.00;;;14.17;;
39344;SDS011;25061;51.954;6.996;2022-09-11T09:50:49;18.13;;;11.18;;
39344;SDS011;25061;51.954;6.996;2022-09-11T09:56:00;14.25;;;10.00;;
39344;SDS011;25061;51.954;6.996;2022-09-11T09:58:33;14.68;;;10.38;;
39344;SDS011;25061;51.954;6.996;2022-09-11T10:01:05;21.90;;;12.25;;
39344;SDS011;25061;51.954;6.996;2022-09-11T10:04:07;17.75;;;11.95;;
39344;SDS011;25061;51.954;6.996;2022-09-11T10:06:36;16.05;;;10.90;;
39344;SDS011;25061;51.954;6.996;2022-09-11T10:09:02;17.33;;;10.70;;
39344;SDS011;25061;51.954;6.996;2022-09-11T10:11:28;14.02;;;9.80;;
39344;SDS011;25061;51.954;6.996;2022-09-11T10:13:53;14.95;;;10.25;;
39344;SDS011;25061;51.954;6.996;2022-09-11T10:16:20;16.02;;;9.40;;
39344;SDS011;25061;51.954;6.996;2022-09-11T10:18:49;14.80;;;8.70;;
39344;SDS011;25061;51.954;6.996;2022-09-11T10:23:57;12.73;;;8.35;;
39344;SDS011;25061;51.954;6.996;2022-09-11T10:26:45;13.38;;;8.15;;
39344;SDS011;25061;51.954;6.996;2022-09-11T10:29:20;14.75;;;10.00;;
39344;SDS011;25061;51.954;6.996;2022-09-11T10:31:51;11.68;;;7.80;;
39344;SDS011;25061;51.954;6.996;2022-09-11T10:34:19;9.32;;;5.95;;
39344;SDS011;25061;51.954;6.996;2022-09-11T10:36:55;10.70;;;6.93;;
39344;SDS011;25061;51.954;6.996;2022-09-11T10:39:25;11.00;;;7.20;;
39344;SDS011;25061;51.954;6.996;2022-09-11T10:41:51;11.05;;;7.60;;
39344;SDS011;25061;51.954;6.996;2022-09-11T10:44:22;11.82;;;7.35;;
39344;SDS011;25061;51.954;6.996;2022-09-11T10:47:03;10.15;;;6.15;;
39344;SDS011;25061;51.954;6.996;2022-09-11T10:49:30;9.88;;;6.28;;
39344;SDS011;25061;51.954;6.996;2022-09-11T10:52:02;9.55;;;5.55;;
39344;SDS011;25061;51.954;6.996;2022-09-11T11:02:00;11.05;;;7.18;;
39344;SDS011;25061;51.954;6.996;2022-09-11T11:04:27;13.05;;;6.97;;
39344;SDS011;25061;51.954;6.996;2022-09-11T11:07:03;11.50;;;7.13;;
39344;SDS011;25061;51.954;6.996;2022-09-11T11:12:07;9.95;;;5.50;;
39344;SDS011;25061;51.954;6.996;2022-09-11T11:14:47;12.45;;;7.63;;
39344;SDS011;25061;51.954;6.996;2022-09-11T11:17:33;12.13;;;8.32;;
39344;SDS011;25061;51.954;6.996;2022-09-11T11:22:49;11.68;;;6.65;;
39344;SDS011;25061;51.954;6.996;2022-09-11T11:30:37;10.63;;;6.60;;
39344;SDS011;25061;51.954;6.996;2022-09-11T11:36:08;10.15;;;5.65;;
39344;SDS011;25061;51.954;6.996;2022-09-11T11:38:46;10.57;;;6.03;;
39344;SDS011;25061;51.954;6.996;2022-09-11T11:41:26;12.10;;;6.32;;
39344;SDS011;25061;51.954;6.996;2022-09-11T11:43:58;15.60;;;8.20;;
39344;SDS011;25061;51.954;6.996;2022-09-11T11:46:32;13.57;;;8.13;;
39344;SDS011;25061;51.954;6.996;2022-09-11T11:51:55;11.68;;;8.23;;
39344;SDS011;25061;51.954;6.996;2022-09-11T11:54:40;10.30;;;6.55;;
39344;SDS011;25061;51.954;6.996;2022-09-11T11:57:20;11.13;;;6.28;;
39344;SDS011;25061;51.954;6.996;2022-09-11T11:59:57;11.30;;;6.85;;
39344;SDS011;25061;51.954;6.996;2022-09-11T12:05:06;11.13;;;6.53;;
39344;SDS011;25061;51.954;6.996;2022-09-11T12:07:37;10.93;;;5.82;;
39344;SDS011;25061;51.954;6.996;2022-09-11T12:10:05;11.15;;;6.70;;
39344;SDS011;25061;51.954;6.996;2022-09-11T12:12:43;10.43;;;6.38;;
39344;SDS011;25061;51.954;6.996;2022-09-11T12:15:18;8.30;;;5.00;;
39344;SDS011;25061;51.954;6.996;2022-09-11T12:17:47;10.68;;;6.22;;
39344;SDS011;25061;51.954;6.996;2022-09-11T12:20:31;11.27;;;6.10;;
39344;SDS011;25061;51.954;6.996;2022-09-11T12:22:59;10.98;;;5.93;;
39344;SDS011;25061;51.954;6.996;2022-09-11T12:30:53;13.25;;;7.03;;
39344;SDS011;25061;51.954;6.996;2022-09-11T12:33:51;10.68;;;6.28;;
39344;SDS011;25061;51.954;6.996;2022-09-11T12:38:58;9.23;;;4.68;;
39344;SDS011;25061;51.954;6.996;2022-09-11T12:41:42;10.38;;;5.72;;
39344;SDS011;25061;51.954;6.996;2022-09-11T12:44:29;12.23;;;7.22;;
39344;SDS011;25061;51.954;6.996;2022-09-11T12:47:05;10.20;;;6.22;;
39344;SDS011;25061;51.954;6.996;2022-09-11T12:49:35;10.27;;;5.78;;
39344;SDS011;25061;51.954;6.996;2022-09-11T12:52:01;9.48;;;4.85;;
39344;SDS011;25061;51.954;6.996;2022-09-11T12:54:29;11.23;;;7.32;;
39344;SDS011;25061;51.954;6.996;2022-09-11T12:57:01;9.50;;;5.32;;
39344;SDS011;25061;51.954;6.996;2022-09-11T12:59:29;9.27;;;4.88;;
39344;SDS011;25061;51.954;6.996;2022-09-11T13:02:02;9.63;;;5.97;;
39344;SDS011;25061;51.954;6.996;2022-09-11T13:04:39;12.13;;;6.47;;
39344;SDS011;25061;51.954;6.996;2022-09-11T13:07:18;11.48;;;7.07;;
39344;SDS011;25061;51.954;6.996;2022-09-11T13:10:08;9.93;;;5.82;;
39344;SDS011;25061;51.954;6.996;2022-09-11T13:12:52;11.52;;;5.70;;
39344;SDS011;25061;51.954;6.996;2022-09-11T13:15:29;12.85;;;7.95;;
39344;SDS011;25061;51.954;6.996;2022-09-11T13:17:55;9.57;;;5.78;;
39344;SDS011;25061;51.954;6.996;2022-09-11T13:20:21;9.90;;;6.10;;
39344;SDS011;25061;51.954;6.996;2022-09-11T13:22:48;11.52;;;6.18;;
39344;SDS011;25061;51.954;6.996;2022-09-11T13:25:18;10.38;;;6.25;;
39344;SDS011;25061;51.954;6.996;2022-09-11T13:27:46;13.05;;;8.20;;
39344;SDS011;25061;51.954;6.996;2022-09-11T13:30:17;14.32;;;9.57;;
39344;SDS011;25061;51.954;6.996;2022-09-11T13:32:46;14.50;;;8.85;;
39344;SDS011;25061;51.954;6.996;2022-09-11T13:35:24;10.88;;;7.00;;
39344;SDS011;25061;51.954;6.996;2022-09-11T13:38:01;13.38;;;8.93;;
39344;SDS011;25061;51.954;6.996;2022-09-11T13:43:35;11.95;;;7.82;;
39344;SDS011;25061;51.954;6.996;2022-09-11T13:48:44;10.07;;;6.22;;
39344;SDS011;25061;51.954;6.996;2022-09-11T13:51:11;13.80;;;8.55;;
39344;SDS011;25061;51.954;6.996;2022-09-11T13:53:39;14.65;;;9.25;;
39344;SDS011;25061;51.954;6.996;2022-09-11T13:56:15;12.75;;;7.57;;
39344;SDS011;25061;51.954;6.996;2022-09-11T13:58:45;9.60;;;5.97;;
39344;SDS011;25061;51.954;6.996;2022-09-11T14:01:11;10.18;;;6.22;;
39344;SDS011;25061;51.954;6.996;2022-09-11T14:03:44;11.75;;;6.95;;
39344;SDS011;25061;51.954;6.996;2022-09-11T14:06:18;13.10;;;8.18;;
39344;SDS011;25061;51.954;6.996;2022-09-11T14:08:51;11.75;;;6.53;;
39344;SDS011;25061;51.954;6.996;2022-09-11T14:11:27;8.82;;;5.28;;
39344;SDS011;25061;51.954;6.996;2022-09-11T14:14:09;9.07;;;5.47;;
39344;SDS011;25061;51.954;6.996;2022-09-11T14:16:46;9.98;;;6.35;;
39344;SDS011;25061;51.954;6.996;2022-09-11T14:19:17;9.38;;;5.05;;
39344;SDS011;25061;51.954;6.996;2022-09-11T14:21:51;11.27;;;7.38;;
39344;SDS011;25061;51.954;6.996;2022-09-11T14:24:27;8.32;;;5.03;;
39344;SDS011;25061;51.954;6.996;2022-09-11T14:26:53;11.40;;;5.65;;
39344;SDS011;25061;51.954;6.996;2022-09-11T14:31:50;9.13;;;5.35;;
39344;SDS011;25061;51.954;6.996;2022-09-11T14:34:17;13.30;;;8.38;;
39344;SDS011;25061;51.954;6.996;2022-09-11T14:37:27;9.82;;;5.25;;
39344;SDS011;25061;51.954;6.996;2022-09-11T14:39:37;10.68;;;6.32;;
39344;SDS011;25061;51.954;6.996;2022-09-11T14:42:06;9.77;;;6.40;;
39344;SDS011;25061;51.954;6.996;2022-09-11T14:44:33;9.75;;;5.63;;
39344;SDS011;25061;51.954;6.996;2022-09-11T14:47:01;10.48;;;6.35;;
39344;SDS011;25061;51.954;6.996;2022-09-11T14:49:27;12.45;;;7.57;;
39344;SDS011;25061;51.954;6.996;2022-09-11T14:51:54;12.65;;;7.00;;
39344;SDS011;25061;51.954;6.996;2022-09-11T14:54:24;11.02;;;7.55;;
39344;SDS011;25061;51.954;6.996;2022-09-11T14:56:51;11.43;;;6.85;;
39344;SDS011;25061;51.954;6.996;2022-09-11T14:59:17;9.15;;;5.65;;
39344;SDS011;25061;51.954;6.996;2022-09-11T15:01:43;10.43;;;6.18;;
39344;SDS011;25061;51.954;6.996;2022-09-11T15:04:11;11.00;;;5.50;;
39344;SDS011;25061;51.954;6.996;2022-09-11T15:06:42;12.77;;;6.95;;
39344;SDS011;25061;51.954;6.996;2022-09-11T15:09:07;9.43;;;5.55;;
39344;SDS011;25061;51.954;6.996;2022-09-11T15:11:33;11.90;;;6.30;;
39344;SDS011;25061;51.954;6.996;2022-09-11T15:13:59;11.50;;;7.32;;
39344;SDS011;25061;51.954;6.996;2022-09-11T15:16:24;12.10;;;7.57;;
39344;SDS011;25061;51.954;6.996;2022-09-11T15:18:50;10.40;;;6.25;;
39344;SDS011;25061;51.954;6.996;2022-09-11T15:21:15;12.13;;;7.63;;
39344;SDS011;25061;51.954;6.996;2022-09-11T15:23:41;14.45;;;5.63;;
39344;SDS011;25061;51.954;6.996;2022-09-11T15:26:11;10.18;;;6.13;;
39344;SDS011;25061;51.954;6.996;2022-09-11T15:28:36;12.20;;;5.78;;
39344;SDS011;25061;51.954;6.996;2022-09-11T15:31:02;11.90;;;7.18;;
39344;SDS011;25061;51.954;6.996;2022-09-11T15:33:28;9.70;;;5.45;;
39344;SDS011;25061;51.954;6.996;2022-09-11T15:36:00;7.68;;;4.38;;
39344;SDS011;25061;51.954;6.996;2022-09-11T15:38:29;9.40;;;4.97;;
39344;SDS011;25061;51.954;6.996;2022-09-11T15:40:56;11.50;;;6.07;;
39344;SDS011;25061;51.954;6.996;2022-09-11T15:43:32;12.27;;;7.05;;
39344;SDS011;25061;51.954;6.996;2022-09-11T15:45:59;13.10;;;7.00;;
39344;SDS011;25061;51.954;6.996;2022-09-11T15:48:30;10.50;;;6.45;;
39344;SDS011;25061;51.954;6.996;2022-09-11T15:51:00;10.82;;;5.55;;
39344;SDS011;25061;51.954;6.996;2022-09-11T15:53:26;9.95;;;5.82;;
39344;SDS011;25061;51.954;6.996;2022-09-11T15:56:15;9.82;;;4.28;;
39344;SDS011;25061;51.954;6.996;2022-09-11T15:58:43;8.90;;;4.75;;
39344;SDS011;25061;51.954;6.996;2022-09-11T16:01:52;9.70;;;5.22;;
39344;SDS011;25061;51.954;6.996;2022-09-11T16:04:03;9.07;;;5.13;;
39344;SDS011;25061;51.954;6.996;2022-09-11T16:06:31;8.20;;;4.57;;
39344;SDS011;25061;51.954;6.996;2022-09-11T16:09:04;11.70;;;6.40;;
39344;SDS011;25061;51.954;6.996;2022-09-11T16:11:32;8.80;;;5.00;;
39344;SDS011;25061;51.954;6.996;2022-09-11T16:14:00;8.40;;;5.03;;
39344;SDS011;25061;51.954;6.996;2022-09-11T16:16:26;10.65;;;5.47;;
39344;SDS011;25061;51.954;6.996;2022-09-11T16:18:52;10.48;;;6.30;;
39344;SDS011;25061;51.954;6.996;2022-09-11T16:21:19;11.07;;;5.80;;
39344;SDS011;25061;51.954;6.996;2022-09-11T16:23:47;10.25;;;6.72;;
39344;SDS011;25061;51.954;6.996;2022-09-11T16:26:13;11.00;;;6.18;;
39344;SDS011;25061;51.954;6.996;2022-09-11T16:28:44;10.75;;;6.25;;
39344;SDS011;25061;51.954;6.996;2022-09-11T16:31:11;10.57;;;6.38;;
39344;SDS011;25061;51.954;6.996;2022-09-11T16:33:38;12.23;;;6.75;;